Time;durP1;ratioP1;P1;durP2;ratioP2;P2;SDS_P1;SDS_P2;PMS_P1;PMS_P2;Temp;Humidity;BMP_temperature;BMP_pressure;BME280_temperature;BME280_humidity;BME280_pressure;Samples;Min_cycle;Max_cycle;Signal;HPM_P1;HPM_P2
2022/09/03 00:00:03;;;;;;;2.90;1.20;;;;;;;11.73;62.16;98671.67;105244;1283;124183;-70
2022/09/03 00:03:08;;;;;;;3.40;1.30;;;;;;;11.77;62.81;98667.48;105309;1283;25245;-69
2022/09/03 00:06:06;;;;;;;4.20;1.60;;;;;;;11.80;62.50;98669.33;105185;1283;138259;-70
2022/09/03 00:09:00;;;;;;;9.20;1.70;;;;;;;11.82;62.16;98662.87;105320;1283;22579;-72
2022/09/03 00:11:34;;;;;;;3.60;1.50;;;;;;;11.84;62.10;98661.38;105152;1283;138393;-71
2022/09/03 00:14:11;;;;;;;2.80;1.30;;;;;;;11.85;62.10;98665.42;105389;1281;22546;-71
2022/09/03 00:16:56;;;;;;;3.50;1.60;;;;;;;11.86;62.08;98660.76;105381;1281;22610;-71
2022/09/03 00:19:28;;;;;;;4.60;1.70;;;;;;;11.86;61.86;98659.75;105226;1281;137957;-70
2022/09/03 00:22:11;;;;;;;3.60;1.40;;;;;;;11.84;62.00;98659.72;105307;1281;24285;-70
2022/09/03 00:24:41;;;;;;;2.90;1.30;;;;;;;11.80;61.93;98664.80;105265;1280;137787;-71
2022/09/03 00:27:14;;;;;;;2.80;1.50;;;;;;;11.76;62.10;98663.81;105376;1281;22554;-71
2022/09/03 00:29:56;;;;;;;3.50;1.40;;;;;;;11.71;62.19;98662.47;105214;1281;138101;-71
2022/09/03 00:32:57;;;;;;;3.00;1.50;;;;;;;11.66;62.42;98658.29;105410;1281;22726;-70
2022/09/03 00:35:27;;;;;;;2.90;1.50;;;;;;;11.59;62.82;98658.39;105323;1281;137760;-70
2022/09/03 00:37:55;;;;;;;2.70;1.60;;;;;;;11.54;62.88;98655.80;105425;1281;24539;-70
2022/09/03 00:40:31;;;;;;;2.70;1.50;;;;;;;11.50;63.01;98652.34;104195;1281;1702955;-70
2022/09/03 00:43:23;;;;;;;3.00;1.60;;;;;;;11.49;63.19;98651.20;105259;1281;138857;-70
2022/09/03 00:46:22;;;;;;;3.90;1.30;;;;;;;11.49;63.81;98648.02;105346;1281;23155;-70
2022/09/03 00:49:23;;;;;;;4.60;1.50;;;;;;;11.48;63.64;98643.91;105499;1283;138117;-69
2022/09/03 00:52:27;;;;;;;4.60;1.60;;;;;;;11.48;63.69;98642.65;105360;1280;25311;-69
2022/09/03 00:55:01;;;;;;;2.70;1.60;;;;;;;11.47;63.50;98643.89;104651;1287;137901;-69
2022/09/03 00:57:50;;;;;;;4.70;1.50;;;;;;;11.47;63.98;98641.39;104756;1288;23086;-70
2022/09/03 01:00:20;;;;;;;3.50;1.70;;;;;;;11.47;63.79;98641.81;104660;1287;138180;-70
2022/09/03 01:02:51;;;;;;;3.20;1.90;;;;;;;11.46;63.94;98644.10;104765;1287;22619;-70
2022/09/03 01:05:29;;;;;;;4.50;1.90;;;;;;;11.44;63.52;98642.70;104653;1287;138181;-70
2022/09/03 01:08:43;;;;;;;3.80;1.80;;;;;;;11.43;64.03;98644.75;104736;1287;26600;-70
2022/09/03 01:11:18;;;;;;;2.10;1.40;;;;;;;11.41;63.90;98646.68;104506;1287;138791;-71
2022/09/03 01:13:56;;;;;;;4.20;1.80;;;;;;;11.40;64.49;98644.60;104933;1287;25474;-70
2022/09/03 01:16:38;;;;;;;4.90;1.90;;;;;;;11.39;64.59;98642.28;104452;1288;22589;-69
2022/09/03 01:19:39;;;;;;;4.70;1.70;;;;;;;11.39;64.71;98646.16;104714;1286;137819;-70
2022/09/03 01:22:24;;;;;;;4.10;1.80;;;;;;;11.38;64.88;98644.84;104866;1286;25380;-70
2022/09/03 01:25:37;;;;;;;4.40;1.70;;;;;;;11.37;64.76;98644.38;104722;1286;139110;-70
2022/09/03 01:28:22;;;;;;;3.90;2.10;;;;;;;11.38;64.76;98649.02;104802;1286;25301;-70
2022/09/03 01:31:12;;;;;;;4.20;2.10;;;;;;;11.39;64.74;98647.31;104662;1287;137687;-69
2022/09/03 01:34:05;;;;;;;3.80;2.00;;;;;;;11.42;65.11;98651.27;104429;1289;25373;-70
2022/09/03 01:36:46;;;;;;;4.90;2.10;;;;;;;11.46;65.40;98646.29;104271;1288;138005;-70
2022/09/03 01:39:28;;;;;;;3.60;1.50;;;;;;;11.49;65.31;98649.23;104416;1288;22556;-70
2022/09/03 01:42:17;;;;;;;5.00;1.80;;;;;;;11.51;65.05;98648.16;104335;1288;137999;-71
2022/09/03 01:44:57;;;;;;;;;;;;;;;11.54;64.81;98641.23;104444;1288;22534;-70
2022/09/03 01:47:54;;;;;;;4.40;1.80;;;;;;;11.56;64.97;98643.95;104368;1288;124357;-70
2022/09/03 01:50:38;;;;;;;3.70;1.80;;;;;;;11.58;64.86;98643.70;104487;1289;30240;-70
2022/09/03 01:53:04;;;;;;;4.30;1.90;;;;;;;11.62;64.75;98642.73;104478;1289;25257;-70
2022/09/03 01:55:45;;;;;;;5.60;2.00;;;;;;;11.64;64.70;98644.23;104413;1289;137575;-70
2022/09/03 01:58:20;;;;;;;2.70;1.60;;;;;;;11.65;64.76;98645.73;104496;1289;24213;-71
2022/09/03 02:00:55;;;;;;;3.40;1.80;;;;;;;11.68;64.92;98647.90;104387;1288;137781;-70
2022/09/03 02:03:24;;;;;;;2.50;1.70;;;;;;;11.69;64.59;98643.45;104628;1289;22569;-70
2022/09/03 02:05:52;;;;;;;5.20;1.90;;;;;;;11.71;64.54;98640.98;104595;1289;138014;-70
2022/09/03 02:08:19;;;;;;;5.20;1.90;;;;;;;11.72;64.71;98647.63;104461;1290;24315;-70
2022/09/03 02:10:56;;;;;;;6.20;1.90;;;;;;;11.71;64.57;98646.91;104578;1284;25445;-70
2022/09/03 02:13:30;;;;;;;3.50;1.70;;;;;;;11.70;64.92;98646.95;105263;1282;137791;-70
2022/09/03 02:16:08;;;;;;;3.10;1.80;;;;;;;11.68;64.82;98649.21;105038;1284;24192;-70
2022/09/03 02:18:40;;;;;;;3.20;1.40;;;;;;;11.66;64.93;98649.61;105180;1282;138474;-71
2022/09/03 02:21:09;;;;;;;3.20;1.90;;;;;;;11.65;65.14;98652.29;105421;1281;23266;-70
2022/09/03 02:23:39;;;;;;;6.50;2.30;;;;;;;11.65;65.54;98656.65;105422;1281;138549;-70
2022/09/03 02:26:09;;;;;;;4.10;2.00;;;;;;;11.64;65.60;98658.03;105508;1281;22523;-70
2022/09/03 02:28:36;;;;;;;;;;;;;;;11.60;65.75;98658.45;105614;1281;25226;-70
2022/09/03 02:31:04;;;;;;;5.50;1.90;;;;;;;11.55;65.57;98655.29;105337;1281;124228;-70
2022/09/03 02:33:39;;;;;;;5.80;1.90;;;;;;;11.52;65.91;98655.49;105544;1283;22541;-70
2022/09/03 02:36:10;;;;;;;3.80;2.50;;;;;;;11.51;65.87;98655.85;105297;1283;138385;-70
2022/09/03 02:38:39;;;;;;;5.10;2.40;;;;;;;11.48;65.80;98660.65;105502;1283;24269;-70
2022/09/03 02:41:06;;;;;;;3.40;2.10;;;;;;;11.46;66.18;98657.73;105416;1283;23226;-70
2022/09/03 02:43:44;;;;;;;3.90;2.00;;;;;;;11.43;66.14;98651.67;105259;1283;137993;-69
2022/09/03 02:46:20;;;;;;;6.50;2.10;;;;;;;11.38;66.33;98652.27;105375;1283;23966;-70
2022/09/03 02:48:47;;;;;;;4.70;2.00;;;;;;;11.33;66.64;98648.55;105350;1283;137842;-69
2022/09/03 02:51:15;;;;;;;4.70;2.20;;;;;;;11.28;66.91;98648.46;105426;1283;22549;-70
2022/09/03 02:53:42;;;;;;;3.90;2.00;;;;;;;11.24;67.05;98650.03;105325;1283;139073;-70
2022/09/03 02:56:10;;;;;;;5.20;2.40;;;;;;;11.19;67.00;98651.63;105427;1283;22656;-69
2022/09/03 02:58:37;;;;;;;5.50;2.40;;;;;;;11.16;66.96;98652.61;105408;1283;22557;-69
2022/09/03 03:01:04;;;;;;;4.40;2.00;;;;;;;11.12;66.78;98653.90;105251;1283;137806;-70
2022/09/03 03:03:32;;;;;;;6.80;2.50;;;;;;;11.09;67.02;98656.35;105395;1283;22542;-70
2022/09/03 03:06:02;;;;;;;4.00;2.20;;;;;;;11.06;66.84;98656.92;105406;1282;137680;-69
2022/09/03 03:08:31;;;;;;;5.20;2.50;;;;;;;11.00;67.32;98653.09;105327;1283;22564;-69
2022/09/03 03:10:59;;;;;;;5.40;2.00;;;;;;;10.95;67.86;98657.89;105366;1283;24303;-69
2022/09/03 03:13:27;;;;;;;6.70;2.20;;;;;;;10.92;67.79;98658.80;105288;1283;138307;-69
2022/09/03 03:15:59;;;;;;;4.90;2.90;;;;;;;10.89;68.02;98657.86;105449;1283;25253;-69
2022/09/03 03:18:27;;;;;;;3.40;2.10;;;;;;;10.87;68.44;98662.77;105291;1282;138632;-70
2022/09/03 03:20:54;;;;;;;4.70;2.30;;;;;;;10.87;68.64;98664.91;105376;1281;25226;-70
2022/09/03 03:23:21;;;;;;;3.80;2.40;;;;;;;10.87;68.62;98666.17;105174;1283;138353;-70
2022/09/03 03:25:48;;;;;;;3.60;2.20;;;;;;;10.86;68.73;98665.39;105413;1281;25340;-70
2022/09/03 03:28:15;;;;;;;5.00;2.60;;;;;;;10.84;68.99;98659.14;105372;1283;25308;-70
2022/09/03 03:30:41;;;;;;;5.60;2.40;;;;;;;10.83;69.19;98659.92;105265;1283;137859;-70
2022/09/03 03:33:11;;;;;;;4.80;2.40;;;;;;;10.80;69.28;98657.38;105794;1281;22563;-70
2022/09/03 03:35:39;;;;;;;2.90;2.00;;;;;;;10.77;69.82;98656.64;105470;1281;138239;-70
2022/09/03 03:38:06;;;;;;;6.70;2.70;;;;;;;10.76;69.84;98657.83;105680;1280;22550;-70
2022/09/03 03:40:33;;;;;;;4.80;2.20;;;;;;;10.76;69.77;98652.54;105502;1280;22671;-69
2022/09/03 03:43:01;;;;;;;6.40;2.70;;;;;;;10.76;69.90;98655.98;105400;1280;138671;-69
2022/09/03 03:45:29;;;;;;;6.40;2.30;;;;;;;10.77;70.24;98657.02;105551;1280;22731;-70
2022/09/03 03:47:58;;;;;;;6.40;2.90;;;;;;;10.78;70.35;98658.96;105343;1281;138380;-70
2022/09/03 03:50:25;;;;;;;4.90;2.60;;;;;;;10.77;70.36;98660.80;105508;1281;25499;-70
2022/09/03 03:52:51;;;;;;;5.90;2.60;;;;;;;10.76;70.22;98662.13;105422;1281;24543;-69
2022/09/03 03:55:18;;;;;;;4.00;2.30;;;;;;;10.73;70.21;98656.63;105257;1283;137884;-70
2022/09/03 03:57:45;;;;;;;7.90;2.90;;;;;;;10.72;70.40;98660.73;105446;1281;22609;-69
2022/09/03 04:00:13;;;;;;;7.70;3.00;;;;;;;10.70;70.74;98658.58;105312;1281;137892;-69
2022/09/03 04:02:43;;;;;;;6.00;2.60;;;;;;;10.68;70.81;98662.08;105370;1281;24502;-70
2022/09/03 04:05:10;;;;;;;4.90;2.40;;;;;;;10.68;70.94;98659.47;105366;1283;22487;-69
2022/09/03 04:07:37;;;;;;;5.80;2.80;;;;;;;10.68;71.16;98658.03;105280;1283;138400;-69
2022/09/03 04:10:11;;;;;;;5.50;2.50;;;;;;;10.68;71.01;98660.05;105335;1283;22555;-69
2022/09/03 04:12:38;;;;;;;6.70;2.70;;;;;;;10.67;71.17;98659.48;105251;1283;137739;-70
2022/09/03 04:15:05;;;;;;;4.90;2.50;;;;;;;10.65;71.56;98658.65;105653;1281;22573;-70
2022/09/03 04:17:32;;;;;;;5.30;2.70;;;;;;;10.63;71.56;98660.19;105395;1280;138067;-70
2022/09/03 04:19:59;;;;;;;5.70;2.40;;;;;;;10.59;71.90;98661.79;105461;1280;22534;-69
2022/09/03 04:22:28;;;;;;;4.00;2.80;;;;;;;10.56;72.10;98660.52;105434;1281;24309;-69
2022/09/03 04:24:55;;;;;;;7.00;2.40;;;;;;;10.54;72.44;98659.38;105246;1283;138411;-70
2022/09/03 04:27:21;;;;;;;6.40;2.60;;;;;;;10.54;72.77;98658.58;105330;1283;23185;-69
2022/09/03 04:29:51;;;;;;;5.40;2.50;;;;;;;10.56;72.71;98659.52;105264;1283;137863;-69
2022/09/03 04:35:05;;;;;;;5.50;2.50;;;;;;;10.62;72.87;98660.01;105440;1281;24119;-70
2022/09/03 04:37:34;;;;;;;6.80;2.50;;;;;;;10.63;73.14;98659.09;105410;1283;137579;-70
2022/09/03 04:40:01;;;;;;;5.00;2.40;;;;;;;10.66;73.37;98658.55;105449;1283;24311;-70
2022/09/03 04:42:28;;;;;;;3.60;2.30;;;;;;;10.69;73.20;98660.95;106074;1280;138724;-70
2022/09/03 04:44:55;;;;;;;4.60;2.50;;;;;;;10.71;73.31;98659.86;105449;1280;24420;-70
2022/09/03 04:47:22;;;;;;;7.40;2.50;;;;;;;10.75;73.39;98662.17;105352;1280;138171;-69
2022/09/03 04:49:49;;;;;;;6.30;2.50;;;;;;;10.79;73.64;98669.23;105416;1280;25352;-70
2022/09/03 04:52:15;;;;;;;5.50;2.50;;;;;;;10.83;73.87;98671.82;105717;1280;22679;-69
2022/09/03 04:54:42;;;;;;;4.10;2.60;;;;;;;10.87;74.03;98672.83;105219;1281;137945;-70
2022/09/03 04:57:09;;;;;;;4.70;2.80;;;;;;;10.92;73.94;98670.08;105341;1280;22570;-70
2022/09/03 04:59:36;;;;;;;4.70;2.40;;;;;;;10.97;74.23;98668.71;105232;1281;139185;-71
2022/09/03 05:02:03;;;;;;;4.70;2.70;;;;;;;11.02;74.37;98675.02;105312;1283;23013;-71
2022/09/03 05:04:30;;;;;;;3.50;2.50;;;;;;;11.08;74.36;98681.56;105318;1281;22576;-70
2022/09/03 05:07:06;;;;;;;4.70;2.50;;;;;;;11.13;74.40;98681.55;105219;1281;137920;-70
2022/09/03 05:09:35;;;;;;;5.00;2.60;;;;;;;11.16;74.56;98686.20;105372;1281;23987;-70
2022/09/03 05:12:02;;;;;;;;;;;;;;;11.20;74.78;98685.36;105231;1281;137680;-71
2022/09/03 05:14:29;;;;;;;7.40;3.10;;;;;;;11.22;74.83;98682.02;105340;1281;25367;-71
2022/09/03 05:16:56;;;;;;;5.00;2.90;;;;;;;11.23;74.90;98680.08;105392;1280;25561;-71
2022/09/03 05:19:24;;;;;;;5.70;3.10;;;;;;;11.26;75.35;98683.02;105302;1280;138638;-70
2022/09/03 05:21:51;;;;;;;7.10;3.00;;;;;;;11.31;75.48;98684.95;105348;1280;24183;-70
2022/09/03 05:24:18;;;;;;;7.90;2.70;;;;;;;11.37;75.50;98688.23;105156;1283;138468;-70
2022/09/03 05:26:45;;;;;;;5.50;2.90;;;;;;;11.44;75.88;98693.79;105370;1283;22534;-70
2022/09/03 05:29:13;;;;;;;4.70;3.40;;;;;;;11.51;76.22;98701.34;105396;1281;25349;-70
2022/09/03 05:31:39;;;;;;;4.80;3.10;;;;;;;11.58;76.22;98701.26;105259;1281;137660;-70
2022/09/03 05:34:08;;;;;;;7.30;3.20;;;;;;;11.67;76.46;98704.73;105331;1281;24055;-70
2022/09/03 05:36:37;;;;;;;4.60;2.80;;;;;;;11.75;76.87;98703.79;105055;1283;138508;-71
2022/09/03 05:39:04;;;;;;;3.90;2.90;;;;;;;11.85;76.64;98700.95;105425;1280;25332;-70
2022/09/03 05:41:32;;;;;;;3.60;2.70;;;;;;;11.95;77.14;98694.48;105309;1280;138597;-71
2022/09/03 05:44:00;;;;;;;5.20;2.60;;;;;;;12.06;77.28;98685.48;105683;1280;22707;-70
2022/09/03 05:46:33;;;;;;;5.60;3.30;;;;;;;12.15;77.20;98687.64;105438;1280;22608;-70
2022/09/03 05:49:01;;;;;;;6.10;3.40;;;;;;;12.22;76.97;98690.48;105262;1281;138155;-70
2022/09/03 05:51:30;;;;;;;4.70;3.00;;;;;;;12.32;76.96;98690.30;105242;1283;23467;-70
2022/09/03 05:53:57;;;;;;;4.50;3.00;;;;;;;12.42;76.93;98689.20;105273;1281;138610;-70
2022/09/03 05:56:27;;;;;;;6.60;4.50;;;;;;;12.52;76.92;98679.60;105370;1281;22779;-70
2022/09/03 05:58:55;;;;;;;;;;;;;;;12.63;76.81;98674.13;105437;1281;24359;-70
2022/09/03 06:01:28;;;;;;;5.60;2.90;;;;;;;12.74;76.48;98671.91;105397;1281;124806;-70
2022/09/03 06:03:59;;;;;;;4.00;3.00;;;;;;;12.83;76.19;98666.95;105421;1281;22535;-70
2022/09/03 06:06:29;;;;;;;5.10;3.60;;;;;;;12.95;75.98;98667.27;105100;1281;137645;-70
2022/09/03 06:09:01;;;;;;;6.60;3.10;;;;;;;13.06;75.67;98668.47;105398;1281;22551;-70
2022/09/03 06:11:30;;;;;;;6.70;3.80;;;;;;;13.17;75.49;98669.09;105336;1281;137999;-70
2022/09/03 06:14:00;;;;;;;7.40;3.70;;;;;;;13.26;75.37;98672.68;105389;1281;22598;-70
2022/09/03 06:16:29;;;;;;;5.80;2.90;;;;;;;13.39;75.22;98674.77;105405;1281;22561;-68
2022/09/03 06:18:56;;;;;;;6.00;2.80;;;;;;;13.64;75.11;98679.27;105244;1281;138413;-68
2022/09/03 06:21:23;;;;;;;5.30;3.70;;;;;;;13.91;74.87;98683.57;105386;1281;22598;-68
2022/09/03 06:23:52;;;;;;;5.00;3.20;;;;;;;14.17;74.19;98682.17;105184;1280;137953;-68
2022/09/03 06:26:22;;;;;;;4.10;3.20;;;;;;;14.39;73.37;98685.44;105552;1281;22747;-68
2022/09/03 06:28:49;;;;;;;7.10;3.10;;;;;;;14.57;72.86;98682.16;105356;1280;22725;-68
2022/09/03 06:31:18;;;;;;;4.70;2.90;;;;;;;14.72;72.33;98687.73;105247;1281;138328;-68
2022/09/03 06:33:46;;;;;;;9.30;3.40;;;;;;;14.84;71.73;98685.50;105415;1281;22876;-68
2022/09/03 06:36:15;;;;;;;6.70;2.90;;;;;;;14.91;71.21;98683.94;105292;1282;138437;-67
2022/09/03 06:38:44;;;;;;;7.60;4.00;;;;;;;15.01;71.16;98684.85;105484;1281;25223;-69
2022/09/03 06:41:16;;;;;;;6.40;2.90;;;;;;;15.09;70.76;98681.75;105325;1281;22620;-70
2022/09/03 06:43:44;;;;;;;7.20;2.90;;;;;;;15.12;70.37;98681.05;105303;1281;137488;-70
2022/09/03 06:46:14;;;;;;;5.00;3.10;;;;;;;15.13;70.43;98681.50;105311;1283;23361;-69
2022/09/03 06:48:41;;;;;;;7.10;3.50;;;;;;;15.13;70.47;98682.32;105279;1281;137674;-69
2022/09/03 06:51:12;;;;;;;4.60;3.00;;;;;;;15.14;70.40;98684.52;105360;1281;25245;-70
2022/09/03 06:53:47;;;;;;;5.30;3.10;;;;;;;15.18;70.37;98685.29;105298;1281;138012;-70
2022/09/03 06:56:17;;;;;;;5.90;2.70;;;;;;;15.20;69.87;98685.63;105351;1281;22544;-69
2022/09/03 06:58:46;;;;;;;5.80;3.20;;;;;;;15.26;70.15;98689.92;105387;1281;22550;-69
2022/09/03 07:01:17;;;;;;;5.80;2.70;;;;;;;15.31;70.09;98689.56;105294;1281;137768;-69
2022/09/03 07:03:46;;;;;;;4.70;3.20;;;;;;;15.39;70.19;98690.13;105362;1281;25420;-69
2022/09/03 07:06:16;;;;;;;5.80;3.40;;;;;;;15.45;70.02;98684.60;105350;1281;137708;-70
2022/09/03 07:08:45;;;;;;;5.70;3.60;;;;;;;15.47;69.46;98682.41;105387;1281;22561;-70
2022/09/03 07:11:15;;;;;;;4.20;3.00;;;;;;;15.49;69.18;98691.63;105419;1280;22871;-69
2022/09/03 07:13:47;;;;;;;4.40;3.30;;;;;;;15.52;69.27;98693.62;105312;1280;137416;-70
2022/09/03 07:16:16;;;;;;;5.50;3.10;;;;;;;15.56;69.16;98697.58;105467;1280;22750;-70
2022/09/03 07:18:43;;;;;;;3.70;2.70;;;;;;;15.64;68.99;98701.54;105303;1280;138415;-70
2022/09/03 07:21:18;;;;;;;4.70;2.70;;;;;;;15.67;68.52;98704.63;105415;1280;24296;-70
2022/09/03 07:23:50;;;;;;;4.00;2.90;;;;;;;15.72;68.38;98709.34;105347;1280;138050;-70
2022/09/03 07:26:23;;;;;;;4.10;3.00;;;;;;;15.77;68.90;98713.05;105416;1280;26506;-70
2022/09/03 07:28:54;;;;;;;6.70;3.40;;;;;;;15.85;69.03;98715.87;105375;1281;23975;-70
2022/09/03 07:31:34;;;;;;;4.40;2.80;;;;;;;15.94;68.75;98716.11;105544;1280;137906;-71
2022/09/03 07:34:08;;;;;;;6.00;3.30;;;;;;;16.02;68.39;98716.27;105513;1281;24365;-70
2022/09/03 07:36:37;;;;;;;4.30;2.90;;;;;;;16.05;68.01;98716.43;105379;1280;138404;-70
2022/09/03 07:39:04;;;;;;;5.70;3.20;;;;;;;16.10;67.73;98712.91;105691;1280;24269;-69
2022/09/03 07:41:32;;;;;;;4.20;2.90;;;;;;;16.15;67.49;98716.38;105341;1280;138490;-69
2022/09/03 07:44:04;;;;;;;5.80;3.10;;;;;;;16.20;67.65;98715.23;105597;1281;25305;-69
2022/09/03 07:46:34;;;;;;;5.00;2.60;;;;;;;16.25;67.41;98714.52;105425;1280;23970;-69
2022/09/03 07:49:02;;;;;;;4.70;3.00;;;;;;;16.27;67.01;98716.54;105417;1281;138512;-69
2022/09/03 07:51:33;;;;;;;4.30;2.80;;;;;;;16.28;67.03;98712.37;105217;1281;24325;-69
2022/09/03 07:54:02;;;;;;;4.10;2.60;;;;;;;16.31;67.19;98714.83;105230;1281;138608;-69
2022/09/03 07:56:30;;;;;;;3.40;2.20;;;;;;;16.35;67.03;98716.05;105391;1281;25482;-70
2022/09/03 07:58:58;;;;;;;4.60;2.60;;;;;;;16.40;66.32;98716.41;105779;1280;22552;-70
2022/09/03 08:01:27;;;;;;;;;;;;;;;16.44;66.24;98717.73;106187;1281;137948;-69
2022/09/03 08:03:54;;;;;;;2.80;2.40;;;;;;;16.49;66.23;98720.25;105953;1280;25304;-69
2022/09/03 08:06:25;;;;;;;3.60;2.60;;;;;;;16.60;66.28;98724.41;105552;1281;138028;-69
2022/09/03 08:09:00;;;;;;;2.60;2.20;;;;;;;16.66;65.70;98721.05;105457;1281;22554;-70
2022/09/03 08:11:28;;;;;;;2.40;2.00;;;;;;;16.73;65.55;98722.79;105272;1281;139862;-70
2022/09/03 08:14:05;;;;;;;3.90;2.40;;;;;;;16.76;64.97;98722.99;105888;1280;23809;-70
2022/09/03 08:16:35;;;;;;;3.10;2.30;;;;;;;16.77;64.73;98723.10;106220;1280;22764;-70
2022/09/03 08:19:02;;;;;;;5.50;2.50;;;;;;;16.76;64.52;98722.45;106510;1281;137803;-69
2022/09/03 08:21:29;;;;;;;3.70;2.40;;;;;;;16.76;64.98;98722.34;106359;1281;25823;-70
2022/09/03 08:24:01;;;;;;;3.50;2.70;;;;;;;16.79;64.69;98720.52;106269;1281;138051;-70
2022/09/03 08:26:30;;;;;;;3.40;2.20;;;;;;;16.83;64.57;98716.27;105651;1281;23774;-69
2022/09/03 08:28:58;;;;;;;3.70;2.40;;;;;;;16.90;64.53;98714.85;105578;1281;23380;-69
2022/09/03 08:31:27;;;;;;;3.20;2.30;;;;;;;16.97;64.54;98714.48;106077;1281;138013;-69
2022/09/03 08:33:56;;;;;;;3.10;2.30;;;;;;;17.05;64.27;98716.39;105445;1281;22702;-69
2022/09/03 08:36:26;;;;;;;2.80;2.20;;;;;;;17.14;64.16;98714.27;105366;1281;137923;-69
2022/09/03 08:38:54;;;;;;;5.70;2.50;;;;;;;17.21;63.54;98708.27;105461;1281;24243;-69
2022/09/03 08:41:36;;;;;;;4.00;2.30;;;;;;;17.32;63.47;98714.73;105345;1281;138857;-70
2022/09/03 08:44:38;;;;;;;2.70;2.30;;;;;;;17.39;63.00;98710.83;105479;1281;24386;-70
2022/09/03 08:47:13;;;;;;;2.70;2.30;;;;;;;17.50;63.45;98713.70;105850;1281;25566;-70
2022/09/03 08:50:04;;;;;;;2.60;2.40;;;;;;;17.57;62.95;98715.36;105508;1280;138353;-70
2022/09/03 08:52:49;;;;;;;3.00;2.50;;;;;;;17.55;62.72;98715.70;105879;1281;24181;-71
2022/09/03 08:55:45;;;;;;;2.50;2.30;;;;;;;17.52;62.50;98712.20;105954;1281;22538;-70
2022/09/03 08:58:17;;;;;;;4.10;2.50;;;;;;;17.45;61.99;98714.42;105730;1281;24234;-70
2022/09/03 09:01:04;;;;;;;4.10;1.90;;;;;;;17.41;62.07;98721.17;105535;1281;137863;-69
2022/09/03 09:03:48;;;;;;;2.90;2.40;;;;;;;17.36;62.42;98723.89;105709;1281;25698;-70
2022/09/03 09:06:32;;;;;;;3.20;2.40;;;;;;;17.33;62.35;98726.62;105382;1281;137952;-70
2022/09/03 09:09:09;;;;;;;3.00;2.40;;;;;;;17.28;62.58;98729.11;105522;1281;22549;-71
2022/09/03 09:11:48;;;;;;;4.20;3.00;;;;;;;17.23;63.03;98724.02;105755;1281;137881;-71
2022/09/03 09:14:22;;;;;;;4.20;2.60;;;;;;;17.24;63.32;98720.55;105854;1281;24534;-71
2022/09/03 09:16:58;;;;;;;8.10;2.90;;;;;;;17.25;62.95;98717.17;105450;1281;29965;-71
2022/09/03 09:20:07;;;;;;;2.90;2.40;;;;;;;17.22;62.62;98724.23;105410;1281;138446;-70
2022/09/03 09:22:48;;;;;;;4.20;2.40;;;;;;;17.23;62.79;98731.73;105683;1282;22566;-69
2022/09/03 09:25:20;;;;;;;3.90;2.90;;;;;;;17.23;62.84;98735.24;105332;1281;137758;-69
2022/09/03 09:28:09;;;;;;;4.10;2.90;;;;;;;17.31;62.91;98734.62;105433;1281;23904;-69
2022/09/03 09:30:36;;;;;;;3.90;2.80;;;;;;;17.38;63.11;98735.56;105912;1281;137538;-70
2022/09/03 09:33:03;;;;;;;3.20;2.90;;;;;;;17.40;62.98;98739.15;105914;1281;23473;-70
2022/09/03 09:35:30;;;;;;;2.60;2.40;;;;;;;17.44;62.70;98737.90;105489;1281;138563;-70
2022/09/03 09:37:59;;;;;;;3.00;2.80;;;;;;;17.50;62.69;98736.45;105317;1282;25528;-70
2022/09/03 09:40:40;;;;;;;6.80;3.10;;;;;;;17.51;62.23;98737.98;105325;1284;22548;-69
2022/09/03 09:43:10;;;;;;;2.60;2.40;;;;;;;17.48;61.80;98732.98;105670;1284;137940;-71
2022/09/03 09:45:40;;;;;;;4.20;2.40;;;;;;;17.44;61.47;98736.63;105782;1282;22729;-70
2022/09/03 09:48:14;;;;;;;4.10;2.90;;;;;;;17.36;61.64;98735.74;105260;1281;138097;-70
2022/09/03 09:50:41;;;;;;;4.30;3.20;;;;;;;17.30;61.82;98734.77;105518;1281;22558;-70
2022/09/03 09:53:14;;;;;;;3.80;2.80;;;;;;;17.28;62.20;98733.28;105351;1281;25454;-70
2022/09/03 09:56:07;;;;;;;2.80;2.50;;;;;;;17.30;62.58;98739.67;105473;1281;137770;-69
2022/09/03 09:58:35;;;;;;;4.20;3.10;;;;;;;17.31;62.43;98742.15;105111;1284;22707;-70
2022/09/03 10:01:24;;;;;;;3.30;2.80;;;;;;;17.30;62.15;98739.35;105271;1281;137879;-70
2022/09/03 10:03:58;;;;;;;3.10;2.70;;;;;;;17.29;62.23;98739.95;105473;1281;22772;-70
2022/09/03 10:09:22;;;;;;;4.60;2.80;;;;;;;17.28;62.58;98742.77;105630;1281;22673;-70
2022/09/03 10:12:22;;;;;;;2.70;2.50;;;;;;;17.29;62.67;98737.54;105367;1281;137958;-70
2022/09/03 10:14:55;;;;;;;4.20;2.70;;;;;;;17.36;62.69;98729.47;105367;1282;22607;-70
2022/09/03 10:17:27;;;;;;;4.00;2.70;;;;;;;17.46;62.71;98728.09;105914;1281;22854;-70
2022/09/03 10:23:06;;;;;;;3.40;3.10;;;;;;;17.70;61.94;98713.68;104531;1289;22584;-69
2022/09/03 10:25:49;;;;;;;3.60;2.80;;;;;;;17.80;61.84;98713.17;104777;1289;138539;-70
2022/09/03 10:28:16;;;;;;;3.10;2.80;;;;;;;17.89;61.49;98713.63;104980;1289;24340;-71
2022/09/03 10:31:02;;;;;;;4.50;3.40;;;;;;;17.93;61.28;98715.48;104701;1290;137836;-69
2022/09/03 10:33:47;;;;;;;3.70;2.80;;;;;;;17.96;61.00;98721.14;104675;1289;24364;-70
2022/09/03 10:36:22;;;;;;;3.90;3.30;;;;;;;18.04;61.08;98722.17;104411;1287;137749;-70
2022/09/03 10:39:04;;;;;;;3.20;2.90;;;;;;;18.10;61.06;98723.77;104937;1290;25435;-65
2022/09/03 10:41:52;;;;;;;3.50;3.20;;;;;;;18.14;60.74;98726.94;105345;1288;137783;-69
2022/09/03 10:44:54;;;;;;;5.40;3.30;;;;;;;18.13;60.42;98732.23;104521;1290;23231;-70
2022/09/03 10:47:41;;;;;;;3.50;3.10;;;;;;;18.08;60.70;98735.55;104576;1290;26637;-70
2022/09/03 10:50:25;;;;;;;3.40;2.90;;;;;;;18.07;61.03;98735.27;104445;1290;22559;-69
2022/09/03 10:53:12;;;;;;;3.70;3.20;;;;;;;18.11;61.15;98730.27;104449;1290;22600;-70
2022/09/03 10:55:46;;;;;;;3.70;3.00;;;;;;;18.25;61.41;98731.10;104336;1289;138223;-70
2022/09/03 10:58:44;;;;;;;4.80;3.10;;;;;;;18.41;61.19;98728.52;105124;1281;25354;-70
2022/09/03 11:01:28;;;;;;;3.40;3.10;;;;;;;18.54;60.41;98728.75;105201;1281;138565;-70
2022/09/03 11:04:07;;;;;;;5.30;3.20;;;;;;;18.60;59.99;98728.73;105273;1283;25379;-70
2022/09/03 11:06:51;;;;;;;4.00;3.50;;;;;;;18.63;59.65;98725.13;105211;1281;138307;-71
2022/09/03 11:09:24;;;;;;;4.10;3.30;;;;;;;18.61;59.28;98725.91;105335;1281;24309;-69
2022/09/03 11:11:59;;;;;;;4.40;3.60;;;;;;;18.60;59.62;98724.92;105221;1281;137855;-69
2022/09/03 11:14:49;;;;;;;4.80;3.40;;;;;;;18.62;59.81;98730.26;105346;1281;24272;-69
2022/09/03 11:17:25;;;;;;;4.70;3.30;;;;;;;18.71;59.60;98725.98;105325;1281;25381;-69
2022/09/03 11:20:06;;;;;;;5.30;3.50;;;;;;;18.79;59.69;98729.65;105374;1281;24432;-69
2022/09/03 11:22:35;;;;;;;5.40;3.20;;;;;;;18.85;58.91;98729.01;105289;1281;24280;-69
2022/09/03 11:25:06;;;;;;;5.10;3.40;;;;;;;18.92;58.83;98724.39;105000;1281;138163;-69
2022/09/03 11:27:41;;;;;;;3.90;3.30;;;;;;;19.16;59.17;98724.77;105285;1281;25218;-69
2022/09/03 11:30:10;;;;;;;4.50;3.70;;;;;;;19.43;58.38;98713.61;105160;1281;137912;-69
2022/09/03 11:32:53;;;;;;;5.00;3.40;;;;;;;19.74;58.07;98710.52;105240;1283;25700;-69
2022/09/03 11:35:30;;;;;;;3.40;3.10;;;;;;;19.95;56.68;98706.36;105357;1281;23926;-69
2022/09/03 11:38:00;;;;;;;3.20;2.80;;;;;;;20.02;56.29;98701.10;105326;1281;24290;-69
2022/09/03 11:40:33;;;;;;;3.80;3.20;;;;;;;20.05;56.00;98697.84;105312;1281;25525;-69
2022/09/03 11:43:26;;;;;;;4.00;3.20;;;;;;;20.21;56.21;98699.17;105153;1281;137842;-69
2022/09/03 11:46:03;;;;;;;4.80;3.10;;;;;;;20.52;55.80;98692.66;105079;1281;23984;-69
2022/09/03 11:48:44;;;;;;;4.10;2.70;;;;;;;20.68;55.09;98690.07;105163;1281;138034;-69
2022/09/03 11:51:36;;;;;;;4.40;2.90;;;;;;;20.70;54.55;98687.33;105272;1281;22593;-69
2022/09/03 11:54:24;;;;;;;3.40;2.80;;;;;;;20.57;54.45;98686.80;105230;1281;138764;-69
2022/09/03 11:57:22;;;;;;;4.90;2.80;;;;;;;20.46;54.84;98687.23;105362;1281;24256;-68
2022/09/03 11:59:49;;;;;;;2.90;2.70;;;;;;;20.33;54.38;98688.91;105119;1283;137959;-69
2022/09/03 12:02:36;;;;;;;3.00;2.70;;;;;;;20.20;54.57;98689.58;105308;1281;22560;-69